createdAt,value
2022-10-19T00:02:09.207Z,0.43
2022-10-19T00:04:35.904Z,0.35
2022-10-19T00:07:02.447Z,0.30
2022-10-19T00:09:29.348Z,0.57
2022-10-19T00:11:55.893Z,0.32
2022-10-19T00:14:23.913Z,0.20
2022-10-19T00:16:51.920Z,0.30
2022-10-19T00:19:22.170Z,0.40
2022-10-19T00:21:51.997Z,0.35
2022-10-19T00:24:19.091Z,0.30
2022-10-19T00:26:45.693Z,0.30
2022-10-19T00:29:13.960Z,0.22
2022-10-19T00:31:40.767Z,0.35
2022-10-19T00:34:07.384Z,0.40
2022-10-19T00:36:37.358Z,0.40
2022-10-19T00:39:05.640Z,0.20
2022-10-19T00:41:35.920Z,0.30
2022-10-19T00:44:06.052Z,0.52
2022-10-19T00:46:38.789Z,0.28
2022-10-19T00:49:10.720Z,0.32
2022-10-19T00:51:40.665Z,0.50
2022-10-19T00:54:08.422Z,0.40
2022-10-19T00:56:35.083Z,0.30
2022-10-19T00:59:05.724Z,0.30
2022-10-19T01:01:33.181Z,0.35
2022-10-19T01:04:01.029Z,0.30
2022-10-19T01:06:27.746Z,0.38
2022-10-19T01:08:54.281Z,0.40
2022-10-19T01:11:35.564Z,0.40
2022-10-19T01:14:10.040Z,0.32
2022-10-19T01:16:58.271Z,0.20
2022-10-19T01:19:52.482Z,0.30
2022-10-19T01:22:33.857Z,0.30
2022-10-19T01:25:21.742Z,0.30
2022-10-19T01:28:16.137Z,0.40
2022-10-19T01:31:02.277Z,0.25
2022-10-19T01:33:54.385Z,0.30
2022-10-19T01:36:30.316Z,0.20
2022-10-19T01:39:08.919Z,0.22
2022-10-19T01:41:58.527Z,0.60
2022-10-19T01:44:35.932Z,0.50
2022-10-19T01:47:17.356Z,0.25
2022-10-19T01:49:46.725Z,0.30
2022-10-19T01:52:15.889Z,0.30
2022-10-19T01:54:45.357Z,0.30
2022-10-19T01:57:13.272Z,0.63
2022-10-19T01:59:40.012Z,0.38
2022-10-19T02:02:09.142Z,0.30
2022-10-19T02:04:36.780Z,0.20
2022-10-19T02:07:04.749Z,0.47
2022-10-19T02:09:31.469Z,0.40
2022-10-19T02:12:01.002Z,0.20
2022-10-19T02:14:30.421Z,0.30
2022-10-19T02:17:05.686Z,0.30
2022-10-19T02:19:32.646Z,0.20
2022-10-19T02:21:59.425Z,0.30
2022-10-19T02:24:25.983Z,0.30
2022-10-19T02:26:53.268Z,0.30
2022-10-19T02:29:19.962Z,0.30
2022-10-19T02:31:46.526Z,0.30
2022-10-19T02:34:13.472Z,0.30
2022-10-19T02:36:40.239Z,0.35
2022-10-19T02:39:07.406Z,0.30
2022-10-19T02:41:40.868Z,0.30
2022-10-19T02:46:54.533Z,0.35
2022-10-19T02:49:21.540Z,0.30
2022-10-19T02:52:00.594Z,0.40
2022-10-19T02:54:27.978Z,0.30
2022-10-19T02:56:54.993Z,0.30
2022-10-19T02:59:21.597Z,0.30
2022-10-19T03:01:48.140Z,0.30
2022-10-19T03:04:14.700Z,0.30
2022-10-19T03:06:41.257Z,0.30
2022-10-19T03:09:07.856Z,0.28
2022-10-19T03:11:34.393Z,0.30
2022-10-19T03:14:00.909Z,0.22
2022-10-19T03:16:27.460Z,0.30
2022-10-19T03:18:54.844Z,0.30
2022-10-19T03:21:21.422Z,0.40
2022-10-19T03:23:47.990Z,0.30
2022-10-19T03:26:16.427Z,0.20
2022-10-19T03:28:43.137Z,0.30
2022-10-19T03:31:09.743Z,0.40
2022-10-19T03:33:36.263Z,0.20
2022-10-19T03:36:24.266Z,0.20
2022-10-19T03:38:54.619Z,0.20
2022-10-19T03:41:22.621Z,0.30
2022-10-19T03:43:49.364Z,0.20
2022-10-19T03:46:16.262Z,0.40
2022-10-19T03:48:43.019Z,0.35
2022-10-19T03:51:12.456Z,0.30
2022-10-19T03:53:40.596Z,0.28
2022-10-19T03:56:17.766Z,0.30
2022-10-19T03:58:46.950Z,0.30
2022-10-19T04:01:16.168Z,0.30
2022-10-19T04:03:43.222Z,0.30
2022-10-19T04:06:21.220Z,0.32
2022-10-19T04:08:49.578Z,0.30
2022-10-19T04:11:17.569Z,0.25
2022-10-19T04:13:44.111Z,0.30
2022-10-19T04:16:13.593Z,0.40
2022-10-19T04:18:40.149Z,0.30
2022-10-19T04:21:07.224Z,0.32
2022-10-19T04:23:35.548Z,0.20
2022-10-19T04:26:04.229Z,0.30
2022-10-19T04:28:30.950Z,0.30
2022-10-19T04:30:57.823Z,0.30
2022-10-19T04:33:24.442Z,0.43
2022-10-19T04:35:50.985Z,0.20
2022-10-19T04:38:17.538Z,0.30
2022-10-19T04:40:44.075Z,0.22
2022-10-19T04:43:10.592Z,0.20
2022-10-19T04:45:37.141Z,0.20
2022-10-19T04:48:03.795Z,0.30
2022-10-19T04:50:30.339Z,0.20
2022-10-19T04:52:56.928Z,0.30
2022-10-19T04:55:23.512Z,0.30
2022-10-19T04:57:50.099Z,0.20
2022-10-19T05:00:16.993Z,0.20
2022-10-19T05:02:44.841Z,0.30
2022-10-19T05:05:12.866Z,0.20
2022-10-19T05:07:39.481Z,0.30
2022-10-19T05:10:07.377Z,0.25
2022-10-19T05:12:36.917Z,0.30
2022-10-19T05:15:04.108Z,0.38
2022-10-19T05:17:33.749Z,0.20
2022-10-19T05:20:00.469Z,0.40
2022-10-19T05:22:27.051Z,0.30
2022-10-19T05:24:57.353Z,0.30
2022-10-19T05:27:24.836Z,0.25
2022-10-19T05:29:51.384Z,0.20
2022-10-19T05:32:17.950Z,0.30
2022-10-19T05:34:44.477Z,0.30
2022-10-19T05:37:11.046Z,0.30
2022-10-19T05:39:37.575Z,0.22
2022-10-19T05:42:04.252Z,0.30
2022-10-19T05:44:30.869Z,0.30
2022-10-19T05:46:57.481Z,0.20
2022-10-19T05:49:24.068Z,0.35
2022-10-19T05:51:50.741Z,0.20
2022-10-19T05:54:17.372Z,0.40
2022-10-19T05:56:44.369Z,0.30
2022-10-19T05:59:14.895Z,0.32
2022-10-19T06:01:41.482Z,0.30
2022-10-19T06:04:08.264Z,0.30
2022-10-19T06:06:34.928Z,0.30
2022-10-19T06:09:01.546Z,0.30
2022-10-19T06:11:35.107Z,0.30
2022-10-19T06:14:04.468Z,0.20
2022-10-19T06:16:31.472Z,0.30
2022-10-19T06:18:58.750Z,0.32
2022-10-19T06:21:28.869Z,0.30
2022-10-19T06:24:00.598Z,0.25
2022-10-19T06:26:27.973Z,0.40
2022-10-19T06:28:57.984Z,0.22
2022-10-19T06:31:24.561Z,0.30
2022-10-19T06:33:51.164Z,0.40
2022-10-19T06:36:21.287Z,0.30
2022-10-19T06:38:48.533Z,0.40
2022-10-19T06:41:15.125Z,0.30
2022-10-19T06:43:43.308Z,0.30
2022-10-19T06:46:17.480Z,0.32
2022-10-19T06:48:44.098Z,0.32
2022-10-19T06:51:11.873Z,0.40
2022-10-19T06:53:38.398Z,0.40
2022-10-19T06:56:06.505Z,0.40
2022-10-19T06:58:37.341Z,0.85
2022-10-19T07:01:05.496Z,0.40
2022-10-19T07:03:32.093Z,0.50
2022-10-19T07:06:00.227Z,0.50
2022-10-19T07:08:28.310Z,0.43
2022-10-19T07:10:57.751Z,0.40
2022-10-19T07:13:24.589Z,0.30
2022-10-19T07:15:59.973Z,0.73
2022-10-19T07:18:27.247Z,0.50
2022-10-19T07:20:55.576Z,0.60
2022-10-19T07:23:22.255Z,0.88
2022-10-19T07:25:48.856Z,0.63
2022-10-19T07:28:15.393Z,0.63
2022-10-19T07:30:41.949Z,0.60
2022-10-19T07:33:08.538Z,0.63
2022-10-19T07:35:35.207Z,0.50
2022-10-19T07:38:01.727Z,0.63
2022-10-19T07:40:28.330Z,0.70
2022-10-19T07:42:54.889Z,0.60
2022-10-19T07:45:21.425Z,0.73
2022-10-19T07:47:48.000Z,0.60
2022-10-19T07:50:14.566Z,0.75
2022-10-19T07:52:41.436Z,0.60
2022-10-19T07:55:08.547Z,0.88
2022-10-19T07:57:35.894Z,0.65
2022-10-19T08:00:02.726Z,0.75
2022-10-19T08:02:39.418Z,0.65
2022-10-19T08:05:16.317Z,0.70
2022-10-19T08:07:43.013Z,0.40
2022-10-19T08:10:09.940Z,0.55
2022-10-19T08:12:37.766Z,0.60
2022-10-19T08:15:07.101Z,0.60
2022-10-19T08:17:37.160Z,0.60
2022-10-19T08:20:05.384Z,0.57
2022-10-19T08:22:32.161Z,0.70
2022-10-19T08:24:58.979Z,0.60
2022-10-19T08:27:25.605Z,0.90
2022-10-19T08:29:52.310Z,0.88
2022-10-19T08:32:20.438Z,0.75
2022-10-19T08:34:47.004Z,0.40
2022-10-19T08:37:25.681Z,0.50
2022-10-19T08:40:00.137Z,0.60
2022-10-19T08:42:49.356Z,0.80
2022-10-19T08:45:18.742Z,1.38
2022-10-19T08:47:49.359Z,1.52
2022-10-19T08:50:22.049Z,1.20
2022-10-19T08:52:54.484Z,0.90
2022-10-19T08:55:39.773Z,0.75
2022-10-19T08:58:36.724Z,0.95
2022-10-19T09:01:37.648Z,1.08
2022-10-19T09:04:13.274Z,0.93
2022-10-19T09:07:12.233Z,0.90
2022-10-19T09:09:43.703Z,1.20
2022-10-19T09:12:13.820Z,0.90
2022-10-19T09:14:46.342Z,0.95
2022-10-19T09:17:14.945Z,1.03
2022-10-19T09:19:41.510Z,0.95
2022-10-19T09:22:15.005Z,1.27
2022-10-19T09:24:52.824Z,1.05
2022-10-19T09:27:24.726Z,0.90
2022-10-19T09:29:56.232Z,1.08
2022-10-19T09:32:35.534Z,1.00
2022-10-19T09:35:24.516Z,0.98
2022-10-19T09:37:51.487Z,1.10
2022-10-19T09:40:21.041Z,1.23
2022-10-19T09:42:51.316Z,1.27
2022-10-19T09:45:31.805Z,1.13
2022-10-19T09:48:05.692Z,1.52
2022-10-19T09:50:42.917Z,1.10
2022-10-19T09:53:19.241Z,0.98
2022-10-19T09:58:15.697Z,1.20
2022-10-19T10:00:44.974Z,0.80
2022-10-19T10:03:25.902Z,0.95
2022-10-19T10:05:53.217Z,1.00
2022-10-19T10:08:25.775Z,1.00
2022-10-19T10:11:12.533Z,1.10
2022-10-19T10:13:48.011Z,1.13
2022-10-19T10:16:16.072Z,0.80
2022-10-19T10:18:53.401Z,1.23
2022-10-19T10:21:25.586Z,1.00
2022-10-19T10:24:19.549Z,0.90
2022-10-19T10:26:48.645Z,0.93
2022-10-19T10:29:32.447Z,0.93
2022-10-19T10:32:06.784Z,1.20
2022-10-19T10:34:50.064Z,1.02
2022-10-19T10:37:22.692Z,1.02
2022-10-19T10:40:00.287Z,1.23
2022-10-19T10:42:39.845Z,1.10
2022-10-19T10:45:35.456Z,0.88
2022-10-19T10:48:19.541Z,0.98
2022-10-19T10:50:46.303Z,1.17
2022-10-19T10:53:32.494Z,0.90
2022-10-19T10:55:59.049Z,1.00
2022-10-19T10:59:11.568Z,1.10
2022-10-19T11:01:41.624Z,1.17
2022-10-19T11:04:22.337Z,1.27
2022-10-19T11:06:55.242Z,1.60
2022-10-19T11:09:31.053Z,1.35
2022-10-19T11:12:02.545Z,1.17
2022-10-19T11:14:31.869Z,1.20
2022-10-19T11:17:03.693Z,1.95
2022-10-19T11:19:39.888Z,1.42
2022-10-19T11:22:16.858Z,2.17
2022-10-19T11:24:57.368Z,2.22
2022-10-19T11:27:49.831Z,2.05
2022-10-19T11:30:19.565Z,2.20
2022-10-19T11:33:16.364Z,2.03
2022-10-19T11:35:58.263Z,2.50
2022-10-19T11:38:29.541Z,1.67
2022-10-19T11:41:39.272Z,1.75
2022-10-19T11:44:37.855Z,2.10
2022-10-19T11:47:22.636Z,2.20
2022-10-19T11:52:56.762Z,1.63
2022-10-19T11:55:36.765Z,2.20
2022-10-19T11:58:06.548Z,1.73
2022-10-19T12:00:44.389Z,1.88
2022-10-19T12:03:29.607Z,1.60
2022-10-19T12:06:24.110Z,2.00
2022-10-19T12:09:28.318Z,1.80
2022-10-19T12:14:39.488Z,1.65
2022-10-19T12:17:10.408Z,1.65
2022-10-19T12:19:44.712Z,1.55
2022-10-19T12:22:17.484Z,1.60
2022-10-19T12:24:44.070Z,1.80
2022-10-19T12:27:15.731Z,2.00
2022-10-19T12:29:46.052Z,1.73
2022-10-19T12:32:17.148Z,1.70
2022-10-19T12:34:52.542Z,1.60
2022-10-19T12:37:23.861Z,1.70
2022-10-19T12:40:12.344Z,1.88
2022-10-19T12:43:03.823Z,1.50
2022-10-19T12:45:37.288Z,1.42
2022-10-19T12:50:48.512Z,1.98
2022-10-19T12:56:05.130Z,1.60
2022-10-19T12:58:46.588Z,1.95
2022-10-19T13:01:34.493Z,1.50
2022-10-19T13:04:28.058Z,1.85
2022-10-19T13:06:57.609Z,1.77
2022-10-19T13:09:39.757Z,1.90
2022-10-19T13:12:19.296Z,1.58
2022-10-19T13:15:04.056Z,1.77
2022-10-19T13:17:34.573Z,2.22
2022-10-19T13:20:13.763Z,2.30
2022-10-19T13:22:47.211Z,1.80
2022-10-19T13:25:16.891Z,2.13
2022-10-19T13:27:44.358Z,1.90
2022-10-19T13:30:35.601Z,1.73
2022-10-19T13:33:33.353Z,1.85
2022-10-19T13:35:59.910Z,1.98
2022-10-19T13:38:30.074Z,2.10
2022-10-19T13:41:04.180Z,2.05
2022-10-19T13:43:32.267Z,1.70
2022-10-19T13:46:12.672Z,1.92
2022-10-19T13:49:16.616Z,1.70
2022-10-19T13:52:20.636Z,1.60
2022-10-19T13:55:25.911Z,1.63
2022-10-19T13:58:14.125Z,1.90
2022-10-19T14:00:52.629Z,1.70
2022-10-19T14:03:29.029Z,1.88
2022-10-19T14:06:01.513Z,2.03
2022-10-19T14:08:41.027Z,1.47
2022-10-19T14:11:19.165Z,1.70
2022-10-19T14:13:46.696Z,1.45
2022-10-19T14:16:20.576Z,1.50
2022-10-19T14:18:56.578Z,1.40
2022-10-19T14:21:34.164Z,1.33
2022-10-19T14:24:00.945Z,1.60
2022-10-19T14:26:32.039Z,1.60
2022-10-19T14:28:59.653Z,1.77
2022-10-19T14:31:36.687Z,1.55
2022-10-19T14:34:04.943Z,1.42
2022-10-19T14:36:37.017Z,1.83
2022-10-19T14:39:04.160Z,1.50
2022-10-19T14:41:36.376Z,1.30
2022-10-19T14:44:24.268Z,1.30
2022-10-19T14:46:50.798Z,1.30
2022-10-19T14:49:17.381Z,1.52
2022-10-19T14:51:58.193Z,1.55
2022-10-19T14:54:30.775Z,1.50
2022-10-19T14:57:00.316Z,1.60
2022-10-19T14:59:32.148Z,1.30
2022-10-19T15:02:01.235Z,1.50
2022-10-19T15:04:30.532Z,1.45
2022-10-19T15:06:58.805Z,1.42
2022-10-19T15:09:37.245Z,1.15
2022-10-19T15:12:16.096Z,1.30
2022-10-19T15:14:42.860Z,1.48
2022-10-19T15:17:24.528Z,1.10
2022-10-19T15:19:51.817Z,1.33
2022-10-19T15:22:22.503Z,1.00
2022-10-19T15:25:08.693Z,1.50
2022-10-19T15:27:36.964Z,1.50
2022-10-19T15:30:18.697Z,1.15
2022-10-19T15:32:47.127Z,1.38
2022-10-19T15:35:25.552Z,1.42
2022-10-19T15:38:00.042Z,1.30
2022-10-19T15:40:41.181Z,1.42
2022-10-19T15:43:37.638Z,1.13
2022-10-19T15:46:13.378Z,1.45
2022-10-19T15:48:50.092Z,1.27
2022-10-19T15:51:24.815Z,0.98
2022-10-19T15:53:59.072Z,1.65
2022-10-19T15:56:28.281Z,1.38
2022-10-19T15:58:58.029Z,1.35
2022-10-19T16:01:26.671Z,1.20
2022-10-19T16:03:53.999Z,1.27
2022-10-19T16:06:24.769Z,1.40
2022-10-19T16:08:51.390Z,1.20
2022-10-19T16:11:19.868Z,1.30
2022-10-19T16:13:46.659Z,1.00
2022-10-19T16:16:20.590Z,1.10
2022-10-19T16:18:47.426Z,1.15
2022-10-19T16:21:14.581Z,1.40
2022-10-19T16:23:42.230Z,1.40
2022-10-19T16:26:08.930Z,1.50
2022-10-19T16:28:36.090Z,1.38
2022-10-19T16:31:02.650Z,1.30
2022-10-19T16:33:29.190Z,1.20
2022-10-19T16:35:55.729Z,1.30
2022-10-19T16:38:22.271Z,1.10
2022-10-19T16:40:48.813Z,1.23
2022-10-19T16:43:15.362Z,1.38
2022-10-19T16:45:42.891Z,1.38
2022-10-19T16:48:12.184Z,0.80
2022-10-19T16:50:38.916Z,1.10
2022-10-19T16:53:10.356Z,0.90
2022-10-19T16:55:40.569Z,1.10
2022-10-19T16:58:07.147Z,1.13
2022-10-19T17:00:34.023Z,1.00
2022-10-19T17:03:00.559Z,0.90
2022-10-19T17:05:27.113Z,1.38
2022-10-19T17:07:53.713Z,1.05
2022-10-19T17:10:20.309Z,0.93
2022-10-19T17:12:46.909Z,1.10
2022-10-19T17:18:00.270Z,1.05
2022-10-19T17:20:26.801Z,1.25
2022-10-19T17:22:53.349Z,1.00
2022-10-19T17:25:19.882Z,1.23
2022-10-19T17:27:50.528Z,0.98
2022-10-19T17:30:17.197Z,0.88
2022-10-19T17:32:43.873Z,0.95
2022-10-19T17:35:10.453Z,1.00
2022-10-19T17:37:38.008Z,1.00
2022-10-19T17:40:05.145Z,1.05
2022-10-19T17:42:32.216Z,1.00
2022-10-19T17:44:58.753Z,0.93
2022-10-19T17:47:25.280Z,1.00
2022-10-19T17:49:51.861Z,1.05
2022-10-19T17:52:18.405Z,1.02
2022-10-19T17:54:54.767Z,1.00
2022-10-19T17:57:31.586Z,0.95
2022-10-19T17:59:58.177Z,1.08
2022-10-19T18:02:24.781Z,1.20
2022-10-19T18:04:51.420Z,0.90
2022-10-19T18:07:18.794Z,0.95
2022-10-19T18:09:45.423Z,1.02
2022-10-19T18:12:13.379Z,1.23
2022-10-19T18:14:40.275Z,1.20
2022-10-19T18:17:06.832Z,1.00
2022-10-19T18:19:33.373Z,0.98
2022-10-19T18:21:59.888Z,0.80
2022-10-19T18:24:26.512Z,0.98
2022-10-19T18:26:53.227Z,1.20
2022-10-19T18:29:22.251Z,1.08
2022-10-19T18:31:51.651Z,1.17
2022-10-19T18:34:24.274Z,1.17
2022-10-19T18:36:51.740Z,0.80
2022-10-19T18:39:18.523Z,0.90
2022-10-19T18:41:45.089Z,0.93
2022-10-19T18:44:14.644Z,0.85
2022-10-19T18:46:41.499Z,1.40
2022-10-19T18:49:08.672Z,0.80
2022-10-19T18:51:35.299Z,1.00
2022-10-19T18:54:02.020Z,1.02
2022-10-19T18:56:29.494Z,0.75
2022-10-19T18:58:56.593Z,0.70
2022-10-19T19:01:26.651Z,0.90
2022-10-19T19:03:57.988Z,0.80
2022-10-19T19:06:29.480Z,0.80
2022-10-19T19:08:57.460Z,0.93
2022-10-19T19:11:30.654Z,0.90
2022-10-19T19:14:02.187Z,0.80
2022-10-19T19:16:32.271Z,0.90
2022-10-19T19:18:58.888Z,0.60
2022-10-19T19:21:27.370Z,0.85
2022-10-19T19:23:55.169Z,0.82
2022-10-19T19:26:23.539Z,0.93
2022-10-19T19:28:51.693Z,0.90
2022-10-19T19:31:18.827Z,0.80
2022-10-19T19:33:47.041Z,1.10
2022-10-19T19:36:15.093Z,0.70
2022-10-19T19:38:41.984Z,0.90
2022-10-19T19:41:12.589Z,0.90
2022-10-19T19:43:39.769Z,0.90
2022-10-19T19:46:12.814Z,0.77
2022-10-19T19:48:40.397Z,0.90
2022-10-19T19:51:11.393Z,0.80
2022-10-19T19:53:38.401Z,0.80
2022-10-19T19:56:09.133Z,0.77
2022-10-19T19:58:35.823Z,0.88
2022-10-19T20:01:19.303Z,0.90
2022-10-19T20:03:46.654Z,0.70
2022-10-19T20:06:14.857Z,0.80
2022-10-19T20:08:41.700Z,0.80
2022-10-19T20:11:10.522Z,0.80
2022-10-19T20:13:37.306Z,0.70
2022-10-19T20:16:15.101Z,1.00
2022-10-19T20:18:44.621Z,1.15
2022-10-19T20:21:11.597Z,0.90
2022-10-19T20:23:38.683Z,0.98
2022-10-19T20:26:05.380Z,0.70
2022-10-19T20:28:33.196Z,0.80
2022-10-19T20:31:07.265Z,0.90
2022-10-19T20:33:36.535Z,0.60
2022-10-19T20:36:08.893Z,0.95
2022-10-19T20:38:37.132Z,0.80
2022-10-19T20:41:08.411Z,0.82
2022-10-19T20:43:36.487Z,0.77
2022-10-19T20:46:04.777Z,0.90
2022-10-19T20:48:31.554Z,1.27
2022-10-19T20:51:20.326Z,0.90
2022-10-19T20:53:49.164Z,0.85
2022-10-19T20:56:18.759Z,0.80
2022-10-19T20:58:45.468Z,0.93
2022-10-19T21:01:19.004Z,1.33
2022-10-19T21:04:05.023Z,1.00
2022-10-19T21:06:33.793Z,0.82
2022-10-19T21:09:00.770Z,0.98
2022-10-19T21:11:29.805Z,0.80
2022-10-19T21:13:58.441Z,0.70
2022-10-19T21:16:30.199Z,0.93
2022-10-19T21:18:57.405Z,1.00
2022-10-19T21:21:27.218Z,0.77
2022-10-19T21:23:57.316Z,0.90
2022-10-19T21:26:28.013Z,1.00
2022-10-19T21:28:55.083Z,0.73
2022-10-19T21:31:23.237Z,0.80
2022-10-19T21:33:50.894Z,0.98
2022-10-19T21:36:18.216Z,0.70
2022-10-19T21:38:45.083Z,1.00
2022-10-19T21:41:16.633Z,1.00
2022-10-19T21:43:43.461Z,1.10
2022-10-19T21:46:15.802Z,1.00
2022-10-19T21:48:43.129Z,0.90
2022-10-19T21:51:37.242Z,1.02
2022-10-19T21:54:05.459Z,0.90
2022-10-19T21:56:32.763Z,0.98
2022-10-19T21:58:59.533Z,0.73
2022-10-19T22:01:28.512Z,0.82
2022-10-19T22:04:05.336Z,0.90
2022-10-19T22:06:34.877Z,0.80
2022-10-19T22:09:02.330Z,0.93
2022-10-19T22:11:28.944Z,0.90
2022-10-19T22:13:56.898Z,0.95
2022-10-19T22:16:24.400Z,0.70
2022-10-19T22:18:50.993Z,0.80
2022-10-19T22:21:20.571Z,0.88
2022-10-19T22:24:10.945Z,1.10
2022-10-19T22:26:40.864Z,0.70
2022-10-19T22:29:07.940Z,0.70
2022-10-19T22:31:35.421Z,0.70
2022-10-19T22:34:05.059Z,0.80
2022-10-19T22:36:31.597Z,0.98
2022-10-19T22:38:58.140Z,0.68
2022-10-19T22:42:01.893Z,0.80
2022-10-19T22:44:28.416Z,0.80
2022-10-19T22:46:54.942Z,0.80
2022-10-19T22:49:21.536Z,0.90
2022-10-19T22:51:48.113Z,0.80
2022-10-19T22:54:15.167Z,0.95
2022-10-19T22:56:42.398Z,0.80
2022-10-19T22:59:09.145Z,0.70
2022-10-19T23:01:36.480Z,0.98
2022-10-19T23:04:03.206Z,0.80
2022-10-19T23:06:30.533Z,0.70
2022-10-19T23:08:57.154Z,0.95
2022-10-19T23:11:23.775Z,0.90
2022-10-19T23:13:50.339Z,0.90
2022-10-19T23:16:16.925Z,0.90
2022-10-19T23:18:43.491Z,1.10
2022-10-19T23:21:12.586Z,0.95
2022-10-19T23:23:39.680Z,0.80
2022-10-19T23:26:09.266Z,0.90
2022-10-19T23:28:36.931Z,0.98
2022-10-19T23:31:06.072Z,0.90
2022-10-19T23:33:33.151Z,0.98
2022-10-19T23:36:08.226Z,1.10
2022-10-19T23:38:35.560Z,0.80
2022-10-19T23:41:02.152Z,0.70
2022-10-19T23:43:28.758Z,1.00
2022-10-19T23:45:55.323Z,0.82
2022-10-19T23:48:21.885Z,0.70
2022-10-19T23:50:59.657Z,0.90
2022-10-19T23:53:26.902Z,0.60
2022-10-19T23:56:08.115Z,0.70
2022-10-19T23:58:35.010Z,0.93
